Time;durP1;ratioP1;P1;durP2;ratioP2;P2;SDS_P1;SDS_P2;PMS_P1;PMS_P2;Temp;Humidity;BMP_temperature;BMP_pressure;BME280_temperature;BME280_humidity;BME280_pressure;Samples;Min_cycle;Max_cycle;Signal;HPM_P1;HPM_P2
2024/02/19 00:00:11;;;;;;;15.07;7.97;;;5.40;99.90;;;;;;5078258;28;20198;-69
2024/02/19 00:02:41;;;;;;;14.63;8.03;;;5.40;99.90;;;;;;5069033;28;20201;-70
2024/02/19 00:05:09;;;;;;;14.10;7.60;;;5.40;99.90;;;;;;5068881;28;20194;-67
2024/02/19 00:07:39;;;;;;;14.13;7.30;;;5.40;99.90;;;;;;5067805;28;20235;-68
2024/02/19 00:10:07;;;;;;;13.23;7.37;;;5.40;99.90;;;;;;5073344;28;20197;-70
2024/02/19 00:12:34;;;;;;;13.77;7.73;;;5.40;99.90;;;;;;5049846;28;20203;-69
2024/02/19 00:15:02;;;;;;;11.87;7.30;;;5.40;99.90;;;;;;5073346;28;20257;-68
2024/02/19 00:17:29;;;;;;;14.53;7.53;;;5.40;99.90;;;;;;5070884;28;20195;-70
2024/02/19 00:19:57;;;;;;;19.47;9.03;;;5.50;99.90;;;;;;5070299;28;20290;-70
2024/02/19 00:22:24;;;;;;;16.30;8.30;;;5.50;99.90;;;;;;5051448;28;20194;-68
2024/02/19 00:24:51;;;;;;;16.20;7.60;;;5.50;99.90;;;;;;5069184;28;20302;-68
2024/02/19 00:27:18;;;;;;;14.20;8.43;;;5.40;99.90;;;;;;5071020;28;20195;-70
2024/02/19 00:29:45;;;;;;;12.00;7.63;;;5.50;99.90;;;;;;5072578;28;20198;-69
2024/02/19 00:32:14;;;;;;;13.97;8.30;;;5.40;99.90;;;;;;5071389;28;20677;-70
2024/02/19 00:34:43;;;;;;;15.20;8.10;;;5.40;99.90;;;;;;5068419;28;20193;-70
2024/02/19 00:37:10;;;;;;;12.60;7.93;;;5.40;99.90;;;;;;5073167;28;20208;-69
2024/02/19 00:39:37;;;;;;;16.53;9.27;;;5.40;99.90;;;;;;5072017;28;20230;-69
2024/02/19 00:42:05;;;;;;;14.17;8.07;;;5.40;99.90;;;;;;5070654;28;20542;-69
2024/02/19 00:44:32;;;;;;;20.20;9.50;;;5.30;99.90;;;;;;5070545;28;20824;-70
2024/02/19 00:47:00;;;;;;;30.60;10.60;;;5.30;99.90;;;;;;5072032;28;20213;-70
2024/02/19 00:49:29;;;;;;;25.30;10.90;;;5.40;99.90;;;;;;5064458;28;20249;-70
2024/02/19 00:51:56;;;;;;;18.57;8.53;;;5.40;99.90;;;;;;5069998;28;20214;-69
2024/02/19 00:54:23;;;;;;;15.43;8.43;;;5.40;99.90;;;;;;5068826;28;20275;-70
2024/02/19 00:56:50;;;;;;;14.47;7.50;;;5.40;99.90;;;;;;5074000;28;20202;-69
2024/02/19 00:59:17;;;;;;;12.40;7.50;;;5.30;99.90;;;;;;5070232;28;20194;-70
2024/02/19 01:01:44;;;;;;;13.80;7.67;;;5.30;99.90;;;;;;5075952;28;20199;-69
2024/02/19 01:04:11;;;;;;;14.13;7.83;;;5.30;99.90;;;;;;5068265;28;20196;-69
2024/02/19 01:06:40;;;;;;;14.10;8.23;;;5.30;99.90;;;;;;5048715;28;20249;-70
2024/02/19 01:09:07;;;;;;;14.57;7.80;;;5.30;99.90;;;;;;5033185;28;20290;-69
2024/02/19 01:11:34;;;;;;;15.57;7.67;;;5.30;99.90;;;;;;5054283;28;20621;-69
2024/02/19 01:14:02;;;;;;;21.17;9.67;;;5.30;99.90;;;;;;5062708;28;20199;-69
2024/02/19 01:16:29;;;;;;;16.83;8.43;;;5.30;99.90;;;;;;5054909;28;20566;-69
2024/02/19 01:18:57;;;;;;;15.63;8.17;;;5.30;99.90;;;;;;5054384;28;20669;-70
2024/02/19 01:21:24;;;;;;;10.73;6.60;;;5.30;99.90;;;;;;5076931;28;20229;-70
2024/02/19 01:23:52;;;;;;;12.83;7.33;;;5.30;99.90;;;;;;5069771;28;20196;-71
2024/02/19 01:26:20;;;;;;;13.67;7.23;;;5.30;99.90;;;;;;5041655;28;20199;-71
2024/02/19 01:28:47;;;;;;;9.50;6.53;;;5.30;99.90;;;;;;5072467;28;20195;-70
2024/02/19 01:31:14;;;;;;;14.70;6.47;;;5.20;99.90;;;;;;5083048;28;20216;-70
2024/02/19 01:33:42;;;;;;;9.47;5.87;;;5.20;99.90;;;;;;5070817;28;20698;-70
2024/02/19 01:36:11;;;;;;;13.33;7.17;;;5.20;99.90;;;;;;5077250;28;20197;-70
2024/02/19 01:38:38;;;;;;;12.70;6.70;;;5.30;99.90;;;;;;5071754;28;20201;-69
2024/02/19 01:41:07;;;;;;;12.57;6.53;;;5.30;99.90;;;;;;5081665;28;20343;-70
2024/02/19 01:43:36;;;;;;;9.57;6.07;;;5.30;99.90;;;;;;5071330;28;20304;-70
2024/02/19 01:46:03;;;;;;;13.30;6.80;;;5.30;99.90;;;;;;5076245;28;20213;-70
2024/02/19 01:48:31;;;;;;;9.53;6.40;;;5.30;99.90;;;;;;5072184;28;20658;-70
2024/02/19 01:50:58;;;;;;;13.20;7.20;;;5.30;99.90;;;;;;5075778;28;20610;-70
2024/02/19 01:53:26;;;;;;;10.80;6.60;;;5.30;99.90;;;;;;5070851;28;20211;-70
2024/02/19 01:55:53;;;;;;;12.83;6.70;;;5.40;99.90;;;;;;5073516;28;20888;-70
2024/02/19 01:58:22;;;;;;;11.97;6.23;;;5.40;99.90;;;;;;5072295;28;20492;-71
2024/02/19 02:03:33;;;;;;;14.73;6.80;;;5.40;99.90;;;;;;5081574;22;1241109;-68
2024/02/19 02:06:00;;;;;;;12.40;6.37;;;5.40;99.90;;;;;;5006752;28;20276;-67
2024/02/19 02:08:27;;;;;;;10.63;6.80;;;5.40;99.90;;;;;;5021734;28;20549;-68
2024/02/19 02:10:54;;;;;;;15.67;8.57;;;5.40;99.90;;;;;;5011387;28;20229;-68
2024/02/19 02:13:23;;;;;;;10.63;6.50;;;5.40;99.90;;;;;;5014877;28;20742;-68
2024/02/19 02:15:50;;;;;;;14.87;7.07;;;5.40;99.90;;;;;;5012707;28;20287;-68
2024/02/19 02:18:18;;;;;;;12.10;6.63;;;5.40;99.90;;;;;;5011768;28;20723;-68
2024/02/19 02:20:45;;;;;;;11.03;6.23;;;5.40;99.90;;;;;;5016542;28;20662;-67
2024/02/19 02:23:14;;;;;;;12.57;6.97;;;5.40;99.90;;;;;;5016156;28;20290;-67
2024/02/19 02:25:41;;;;;;;11.17;7.00;;;5.50;99.90;;;;;;5008107;28;20279;-68
2024/02/19 02:28:10;;;;;;;11.17;6.60;;;5.50;99.90;;;;;;4994170;28;20278;-68
2024/02/19 02:30:38;;;;;;;9.80;6.20;;;5.40;99.90;;;;;;5012419;28;20582;-68
2024/02/19 02:33:05;;;;;;;13.40;7.40;;;5.50;99.90;;;;;;5012141;28;20207;-68
2024/02/19 02:35:33;;;;;;;17.27;7.93;;;5.50;99.90;;;;;;5012352;28;20205;-69
2024/02/19 02:38:01;;;;;;;14.47;7.80;;;5.50;99.90;;;;;;4993093;28;20651;-68
2024/02/19 02:40:28;;;;;;;18.70;7.97;;;5.40;99.90;;;;;;5010298;28;20288;-67
2024/02/19 02:42:55;;;;;;;13.60;7.37;;;5.40;99.90;;;;;;5010539;28;20196;-69
2024/02/19 02:45:24;;;;;;;12.37;7.00;;;5.40;99.90;;;;;;5011511;28;20224;-68
2024/02/19 02:47:51;;;;;;;14.70;7.00;;;5.30;99.90;;;;;;5006850;28;20200;-68
2024/02/19 02:50:18;;;;;;;12.90;6.90;;;5.40;99.90;;;;;;5017123;28;20199;-68
2024/02/19 02:52:45;;;;;;;12.80;7.17;;;5.40;99.90;;;;;;5011399;28;20223;-68
2024/02/19 02:55:12;;;;;;;12.00;6.90;;;5.40;99.90;;;;;;5010393;28;20226;-68
2024/02/19 02:57:39;;;;;;;13.50;6.73;;;5.40;99.90;;;;;;5010234;28;20216;-68
2024/02/19 03:00:08;;;;;;;12.07;7.30;;;5.40;99.90;;;;;;5004108;28;20291;-68
2024/02/19 03:02:37;;;;;;;15.90;8.07;;;5.40;99.90;;;;;;5010765;28;20246;-67
2024/02/19 03:05:04;;;;;;;11.20;7.57;;;5.30;99.90;;;;;;5011311;28;20875;-68
2024/02/19 03:07:31;;;;;;;14.93;7.20;;;5.30;99.90;;;;;;5011330;28;20196;-67
2024/02/19 03:09:58;;;;;;;16.20;7.77;;;5.30;99.90;;;;;;5011736;28;20196;-68
2024/02/19 03:12:25;;;;;;;13.73;7.67;;;5.30;99.90;;;;;;5011504;28;20244;-68
2024/02/19 03:14:52;;;;;;;12.53;6.90;;;5.40;99.90;;;;;;5017324;28;20250;-68
2024/02/19 03:17:20;;;;;;;12.40;7.40;;;5.30;99.90;;;;;;5011335;28;20253;-68
2024/02/19 03:19:48;;;;;;;13.20;7.73;;;5.40;99.90;;;;;;5017834;28;20203;-68
2024/02/19 03:22:15;;;;;;;14.37;7.40;;;5.40;99.90;;;;;;4998746;28;20683;-68
2024/02/19 03:24:43;;;;;;;10.73;6.90;;;5.40;99.90;;;;;;5009754;28;20284;-67
2024/02/19 03:27:12;;;;;;;13.43;7.47;;;5.40;99.90;;;;;;5014865;28;20294;-68
2024/02/19 03:29:39;;;;;;;12.80;7.23;;;5.40;99.90;;;;;;5012381;28;20197;-68
2024/02/19 03:32:06;;;;;;;13.37;7.70;;;5.30;99.90;;;;;;5009829;28;20235;-68
2024/02/19 03:34:33;;;;;;;14.20;7.90;;;5.40;99.90;;;;;;5015575;28;20270;-68
2024/02/19 03:37:02;;;;;;;12.97;6.83;;;5.40;99.90;;;;;;4993098;28;20262;-68
2024/02/19 03:39:29;;;;;;;12.93;7.63;;;5.40;99.90;;;;;;4989428;28;20560;-68
2024/02/19 03:41:56;;;;;;;12.27;7.40;;;5.40;99.90;;;;;;5012780;28;20235;-67
2024/02/19 03:44:23;;;;;;;14.50;7.90;;;5.40;99.90;;;;;;5011025;28;20288;-69
2024/02/19 03:46:50;;;;;;;15.10;8.07;;;5.40;99.90;;;;;;5010041;28;20686;-66
2024/02/19 03:49:17;;;;;;;13.87;7.73;;;5.40;99.90;;;;;;5012949;28;20235;-67
2024/02/19 03:51:44;;;;;;;13.57;8.27;;;5.40;99.90;;;;;;5013253;28;20215;-68
2024/02/19 03:54:13;;;;;;;17.63;7.80;;;5.40;99.90;;;;;;5032608;28;20251;-67
2024/02/19 03:56:40;;;;;;;15.07;8.07;;;5.30;99.90;;;;;;5008604;28;20306;-66
2024/02/19 03:59:07;;;;;;;14.20;7.83;;;5.30;99.90;;;;;;5013533;28;20208;-68
2024/02/19 04:01:36;;;;;;;12.33;8.03;;;5.30;99.90;;;;;;5011409;28;20282;-67
2024/02/19 04:04:04;;;;;;;12.50;7.73;;;5.30;99.90;;;;;;5011956;28;20602;-68
2024/02/19 04:06:31;;;;;;;15.77;8.83;;;5.30;99.90;;;;;;5009199;28;20658;-67
2024/02/19 04:08:58;;;;;;;12.97;8.20;;;5.40;99.90;;;;;;5011147;28;20274;-67
2024/02/19 04:11:26;;;;;;;19.20;8.90;;;5.30;99.90;;;;;;5010956;28;20636;-68
2024/02/19 04:13:53;;;;;;;16.30;8.90;;;5.30;99.90;;;;;;5008957;28;20199;-67
2024/02/19 04:16:20;;;;;;;18.67;8.87;;;5.30;99.90;;;;;;5010854;28;20209;-68
2024/02/19 04:18:47;;;;;;;14.43;8.97;;;5.30;99.90;;;;;;5010042;28;20207;-68
2024/02/19 04:21:14;;;;;;;16.27;9.40;;;5.40;99.90;;;;;;5011298;28;20208;-68
2024/02/19 04:23:41;;;;;;;16.93;8.93;;;5.30;99.90;;;;;;5008799;28;20220;-66
2024/02/19 04:26:08;;;;;;;15.93;9.10;;;5.30;99.90;;;;;;5010046;28;20193;-68
2024/02/19 04:28:37;;;;;;;16.23;9.30;;;5.40;99.90;;;;;;5009755;28;20640;-68
2024/02/19 04:31:04;;;;;;;14.63;8.53;;;5.40;99.90;;;;;;5010251;28;20635;-67
2024/02/19 04:33:31;;;;;;;16.63;8.53;;;5.40;99.90;;;;;;5008017;28;20236;-67
2024/02/19 04:35:59;;;;;;;14.50;8.50;;;5.40;99.90;;;;;;4993712;28;20239;-68
2024/02/19 04:38:26;;;;;;;13.13;8.60;;;5.40;99.90;;;;;;5006922;28;20208;-67
2024/02/19 04:40:53;;;;;;;13.97;8.40;;;5.40;99.90;;;;;;5016782;28;20202;-67
2024/02/19 04:43:20;;;;;;;18.03;9.93;;;5.50;99.90;;;;;;5008581;28;20193;-68
2024/02/19 04:45:48;;;;;;;14.30;8.50;;;5.40;99.90;;;;;;5009401;28;20292;-67
2024/02/19 04:48:15;;;;;;;14.07;8.97;;;5.40;99.90;;;;;;4991725;28;20224;-66
2024/02/19 04:50:42;;;;;;;14.87;8.57;;;5.40;99.90;;;;;;5007348;28;20212;-68
2024/02/19 04:53:09;;;;;;;15.27;8.53;;;5.40;99.90;;;;;;4991222;28;20302;-67
2024/02/19 04:55:36;;;;;;;14.63;8.77;;;5.40;99.90;;;;;;5017516;28;20969;-67
2024/02/19 04:58:04;;;;;;;16.03;9.00;;;5.40;99.90;;;;;;5008554;28;20196;-67
2024/02/19 05:00:33;;;;;;;12.90;8.13;;;5.50;99.90;;;;;;5017962;28;20322;-67
2024/02/19 05:03:02;;;;;;;14.03;8.47;;;5.50;99.90;;;;;;5008245;28;20231;-67
2024/02/19 05:05:29;;;;;;;16.27;9.73;;;5.50;99.90;;;;;;5018065;28;20230;-69
2024/02/19 05:07:56;;;;;;;16.50;9.60;;;5.50;99.90;;;;;;5008558;28;20220;-66
2024/02/19 05:10:23;;;;;;;19.87;10.10;;;5.50;99.90;;;;;;5013826;28;20266;-67
2024/02/19 05:12:50;;;;;;;16.07;9.67;;;5.40;99.90;;;;;;5009305;28;20299;-67
2024/02/19 05:15:17;;;;;;;19.23;10.43;;;5.40;99.90;;;;;;5006025;28;20520;-67
2024/02/19 05:17:44;;;;;;;20.77;10.40;;;5.40;99.90;;;;;;5009350;28;20284;-67
2024/02/19 05:20:13;;;;;;;17.00;9.73;;;5.30;99.90;;;;;;5017429;28;20258;-67
2024/02/19 05:22:40;;;;;;;18.53;10.03;;;5.30;99.90;;;;;;5012062;28;20208;-67
2024/02/19 05:25:08;;;;;;;19.37;10.13;;;5.40;99.90;;;;;;5012100;28;20198;-67
2024/02/19 05:27:35;;;;;;;14.07;8.93;;;5.40;99.90;;;;;;5009369;28;20309;-68
2024/02/19 05:30:02;;;;;;;17.73;9.40;;;5.40;99.90;;;;;;5006832;28;20224;-68
2024/02/19 05:32:29;;;;;;;15.27;9.40;;;5.40;99.90;;;;;;5011272;28;20197;-68
2024/02/19 05:34:56;;;;;;;15.00;9.00;;;5.30;99.90;;;;;;5009354;28;20230;-67
2024/02/19 05:37:25;;;;;;;13.97;8.40;;;5.40;99.90;;;;;;5009839;28;20208;-68
2024/02/19 05:39:52;;;;;;;16.43;8.50;;;5.40;99.90;;;;;;5008852;28;20376;-68
2024/02/19 05:42:19;;;;;;;14.20;8.60;;;5.40;99.90;;;;;;5008848;28;20197;-68
2024/02/19 05:44:46;;;;;;;16.80;9.70;;;5.40;99.90;;;;;;5007880;28;20713;-68
2024/02/19 05:47:13;;;;;;;12.83;8.00;;;5.40;99.90;;;;;;5009088;28;20223;-67
2024/02/19 05:49:41;;;;;;;15.90;8.40;;;5.40;99.90;;;;;;5008857;28;20266;-68
2024/02/19 05:52:08;;;;;;;15.17;9.03;;;5.50;99.90;;;;;;5010429;28;20204;-68
2024/02/19 05:54:36;;;;;;;17.83;9.53;;;5.50;99.90;;;;;;5004841;28;20206;-68
2024/02/19 05:57:06;;;;;;;14.23;9.20;;;5.50;99.90;;;;;;5012755;28;20192;-68
2024/02/19 05:59:33;;;;;;;14.83;8.80;;;5.50;99.90;;;;;;4994675;28;20463;-68
2024/02/19 06:02:00;;;;;;;17.57;9.93;;;5.50;99.90;;;;;;5012181;28;20276;-68
2024/02/19 06:04:27;;;;;;;18.50;10.17;;;5.50;99.90;;;;;;5011037;28;20259;-68
2024/02/19 06:06:54;;;;;;;17.13;8.77;;;5.40;99.90;;;;;;5012880;28;20235;-67
2024/02/19 06:09:21;;;;;;;13.30;8.23;;;5.40;99.90;;;;;;5014455;28;20246;-67
2024/02/19 06:11:50;;;;;;;14.17;8.00;;;5.30;99.90;;;;;;5010099;28;20297;-67
2024/02/19 06:14:17;;;;;;;12.90;8.00;;;5.30;99.90;;;;;;5012175;28;20643;-67
2024/02/19 06:16:44;;;;;;;13.43;8.40;;;5.30;99.90;;;;;;5014520;28;20197;-68
2024/02/19 06:19:11;;;;;;;13.63;8.27;;;5.30;99.90;;;;;;5011733;28;20715;-67
2024/02/19 06:21:38;;;;;;;17.47;8.80;;;5.30;99.90;;;;;;5004311;28;20196;-69
2024/02/19 06:24:06;;;;;;;14.80;8.30;;;5.30;99.90;;;;;;5012270;28;20308;-67
2024/02/19 06:26:33;;;;;;;16.03;8.70;;;5.30;99.90;;;;;;5006462;28;20195;-68
2024/02/19 06:29:01;;;;;;;15.70;8.47;;;5.30;99.90;;;;;;4994244;28;20203;-67
2024/02/19 06:31:28;;;;;;;13.07;8.43;;;5.30;99.90;;;;;;5006378;28;20263;-68
2024/02/19 06:33:55;;;;;;;12.90;7.63;;;5.20;99.90;;;;;;5009892;28;20266;-68
2024/02/19 06:36:23;;;;;;;14.73;8.83;;;5.30;99.90;;;;;;5012547;28;20196;-68
2024/02/19 06:38:50;;;;;;;15.33;8.47;;;5.30;99.90;;;;;;5011321;28;20238;-68
2024/02/19 06:41:17;;;;;;;15.77;9.13;;;5.20;99.90;;;;;;5014091;28;20196;-67
2024/02/19 06:43:44;;;;;;;14.00;8.63;;;5.20;99.90;;;;;;4993653;28;20194;-68
2024/02/19 06:46:13;;;;;;;16.50;10.33;;;5.20;99.90;;;;;;5015587;28;20293;-68
2024/02/19 06:48:41;;;;;;;16.87;9.23;;;5.20;99.90;;;;;;5014195;28;20651;-68
2024/02/19 06:51:08;;;;;;;18.17;9.53;;;5.10;99.90;;;;;;4992652;28;20211;-67
2024/02/19 06:53:35;;;;;;;16.20;9.30;;;5.10;99.90;;;;;;5009029;28;20327;-67
2024/02/19 06:56:02;;;;;;;15.20;8.90;;;5.10;99.90;;;;;;4995197;28;20196;-68
2024/02/19 06:58:29;;;;;;;14.27;8.03;;;5.10;99.90;;;;;;5013522;28;20618;-68
2024/02/19 07:00:56;;;;;;;16.10;9.17;;;5.10;99.90;;;;;;5020728;28;20589;-67
2024/02/19 07:03:25;;;;;;;14.40;8.90;;;5.20;99.90;;;;;;5010910;28;20240;-67
2024/02/19 07:05:52;;;;;;;11.77;8.10;;;5.20;99.90;;;;;;4993501;28;20242;-67
2024/02/19 07:08:19;;;;;;;16.93;9.30;;;5.10;99.90;;;;;;5007166;28;20197;-67
2024/02/19 07:10:46;;;;;;;17.50;9.93;;;5.20;99.90;;;;;;4995059;28;20455;-68
2024/02/19 07:13:14;;;;;;;19.37;9.47;;;5.20;99.90;;;;;;4986406;28;20207;-68
2024/02/19 07:15:41;;;;;;;18.03;10.10;;;5.10;99.90;;;;;;5003041;28;20203;-68
2024/02/19 07:18:08;;;;;;;13.77;8.37;;;5.10;99.90;;;;;;5012965;28;20203;-68
2024/02/19 07:20:36;;;;;;;16.33;9.00;;;5.10;99.90;;;;;;4992865;28;20675;-68
2024/02/19 07:23:04;;;;;;;18.20;9.23;;;5.00;99.90;;;;;;5008251;28;20223;-68
2024/02/19 07:25:31;;;;;;;15.57;8.97;;;5.00;99.90;;;;;;5006662;28;20214;-68
2024/02/19 07:27:58;;;;;;;14.93;8.37;;;5.00;99.90;;;;;;5012222;28;20197;-68
2024/02/19 07:30:25;;;;;;;15.23;9.17;;;5.10;99.90;;;;;;5008654;28;20273;-68
2024/02/19 07:32:52;;;;;;;14.93;9.20;;;5.10;99.90;;;;;;5006507;28;20590;-68
2024/02/19 07:35:19;;;;;;;15.50;8.50;;;5.10;99.90;;;;;;5007443;28;20770;-67
2024/02/19 07:37:48;;;;;;;12.83;8.17;;;5.10;99.90;;;;;;5009610;28;20277;-68
2024/02/19 07:40:15;;;;;;;13.93;7.90;;;5.10;99.90;;;;;;5006379;28;20228;-68
2024/02/19 07:42:42;;;;;;;13.23;7.63;;;5.20;99.90;;;;;;5008900;28;20201;-68
2024/02/19 07:45:10;;;;;;;13.07;7.17;;;5.20;99.90;;;;;;5007775;28;20184;-69
2024/02/19 07:47:37;;;;;;;12.60;7.87;;;5.20;99.90;;;;;;5009005;28;20200;-67
2024/02/19 07:50:05;;;;;;;11.40;7.00;;;5.30;99.90;;;;;;5005888;28;20279;-67
2024/02/19 07:52:32;;;;;;;16.17;8.83;;;5.30;99.90;;;;;;5008856;28;20201;-67
2024/02/19 07:55:00;;;;;;;16.37;8.83;;;5.30;99.90;;;;;;4990256;28;20243;-68
2024/02/19 07:57:30;;;;;;;14.67;8.67;;;5.30;99.90;;;;;;5017671;28;20597;-68
2024/02/19 07:59:57;;;;;;;14.63;8.53;;;5.30;99.90;;;;;;5006159;28;21156;-68
2024/02/19 08:02:24;;;;;;;14.37;8.33;;;5.20;99.90;;;;;;5013275;28;20321;-68
2024/02/19 08:04:51;;;;;;;14.33;8.63;;;5.20;99.90;;;;;;5005562;28;20201;-67
2024/02/19 08:07:19;;;;;;;15.13;9.37;;;5.20;99.90;;;;;;5005891;28;20200;-67
2024/02/19 08:09:47;;;;;;;16.10;8.70;;;5.20;99.90;;;;;;5006012;28;20209;-67
2024/02/19 08:12:15;;;;;;;16.93;9.97;;;5.20;99.90;;;;;;5008586;28;20230;-67
2024/02/19 08:14:42;;;;;;;15.70;9.53;;;5.20;99.90;;;;;;4996024;28;20620;-67
2024/02/19 08:17:09;;;;;;;14.10;8.10;;;5.20;99.90;;;;;;5007152;28;20284;-67
2024/02/19 08:19:37;;;;;;;15.60;9.03;;;5.20;99.90;;;;;;5000898;28;20214;-67
2024/02/19 08:22:04;;;;;;;15.37;8.97;;;5.20;99.90;;;;;;5007650;28;20335;-67
2024/02/19 08:24:32;;;;;;;13.90;8.20;;;5.20;99.90;;;;;;4988775;28;20202;-66
2024/02/19 08:26:59;;;;;;;12.10;7.97;;;5.20;99.90;;;;;;5010222;28;20277;-67
2024/02/19 08:29:28;;;;;;;13.43;8.67;;;5.20;99.90;;;;;;5005876;28;20271;-67
2024/02/19 08:31:56;;;;;;;15.83;9.33;;;5.30;99.90;;;;;;4997633;28;20210;-67
2024/02/19 08:34:23;;;;;;;13.37;8.63;;;5.20;99.90;;;;;;5018147;28;20649;-67
2024/02/19 08:36:50;;;;;;;16.30;10.07;;;5.30;99.90;;;;;;4989036;28;20209;-66
2024/02/19 08:39:17;;;;;;;16.00;8.67;;;5.30;99.90;;;;;;5013688;28;20205;-68
2024/02/19 08:41:45;;;;;;;14.30;8.50;;;5.30;99.90;;;;;;5006858;28;20318;-67
2024/02/19 08:44:12;;;;;;;13.07;8.40;;;5.30;99.90;;;;;;5013509;28;20632;-67
2024/02/19 08:46:40;;;;;;;15.13;9.37;;;5.30;99.90;;;;;;5008689;28;20222;-66
2024/02/19 08:49:09;;;;;;;14.17;9.03;;;5.30;99.90;;;;;;5013771;28;20431;-67
2024/02/19 08:51:36;;;;;;;14.40;9.20;;;5.30;99.90;;;;;;5006136;28;20290;-67
2024/02/19 08:54:04;;;;;;;12.27;7.60;;;5.20;99.90;;;;;;5017748;28;20272;-67
2024/02/19 08:56:31;;;;;;;14.97;8.93;;;5.20;99.90;;;;;;5006305;28;20228;-66
2024/02/19 08:59:01;;;;;;;14.83;7.97;;;5.20;99.90;;;;;;5007530;28;20303;-67
2024/02/19 09:01:28;;;;;;;14.30;8.97;;;5.20;99.90;;;;;;5006465;28;20204;-66
2024/02/19 09:03:56;;;;;;;16.03;8.87;;;5.20;99.90;;;;;;5001075;28;21016;-67
2024/02/19 09:06:23;;;;;;;18.87;9.83;;;5.20;99.90;;;;;;4986008;28;20613;-68
2024/02/19 09:08:51;;;;;;;17.83;8.93;;;5.10;99.90;;;;;;5017332;28;20196;-66
2024/02/19 09:11:18;;;;;;;16.37;9.07;;;5.20;99.90;;;;;;5019343;28;20200;-66
2024/02/19 09:13:45;;;;;;;19.50;10.30;;;5.20;99.90;;;;;;5017109;28;20282;-67
2024/02/19 09:16:12;;;;;;;21.87;11.10;;;5.20;99.90;;;;;;5011300;28;20332;-67
2024/02/19 09:18:39;;;;;;;17.73;10.33;;;5.20;99.90;;;;;;4997243;28;20712;-66
2024/02/19 09:21:08;;;;;;;18.50;9.87;;;5.10;99.90;;;;;;5002976;28;20237;-67
2024/02/19 09:23:36;;;;;;;16.70;9.77;;;5.10;99.90;;;;;;5003919;28;20251;-66
2024/02/19 09:26:03;;;;;;;14.70;9.83;;;5.10;99.90;;;;;;5002431;28;20258;-67
2024/02/19 09:28:31;;;;;;;14.90;9.13;;;5.10;99.90;;;;;;5002234;28;20659;-67
2024/02/19 09:30:58;;;;;;;16.17;9.27;;;5.00;99.90;;;;;;5004704;28;20206;-67
2024/02/19 09:33:25;;;;;;;20.13;10.10;;;5.00;99.90;;;;;;4988133;28;20201;-68
2024/02/19 09:35:52;;;;;;;15.77;9.27;;;5.00;99.90;;;;;;5008917;28;20228;-67
2024/02/19 09:38:21;;;;;;;20.00;11.43;;;5.00;99.90;;;;;;5008318;28;20283;-66
2024/02/19 09:40:49;;;;;;;18.50;10.40;;;5.10;99.90;;;;;;5006350;28;20203;-67
2024/02/19 09:43:17;;;;;;;16.50;9.80;;;5.10;99.90;;;;;;5012363;28;20532;-67
2024/02/19 09:45:44;;;;;;;18.23;10.17;;;5.10;99.90;;;;;;5008142;28;20250;-68
2024/02/19 09:48:11;;;;;;;15.33;9.97;;;5.10;99.90;;;;;;5013362;28;20194;-67
2024/02/19 09:50:43;;;;;;;20.93;10.40;;;5.10;99.90;;;;;;5008643;28;20203;-68
2024/02/19 09:53:11;;;;;;;17.07;10.40;;;5.10;99.90;;;;;;4997372;28;20211;-68
2024/02/19 09:55:40;;;;;;;19.07;10.47;;;5.00;99.90;;;;;;4989183;28;20223;-68
2024/02/19 09:58:07;;;;;;;16.60;10.23;;;5.00;99.90;;;;;;5011944;28;20278;-67
2024/02/19 10:00:34;;;;;;;16.70;10.07;;;4.90;99.90;;;;;;5008090;28;20223;-67
2024/02/19 10:03:02;;;;;;;19.03;10.07;;;4.90;99.90;;;;;;5010972;28;20223;-66
2024/02/19 10:05:29;;;;;;;14.87;9.73;;;4.90;99.90;;;;;;5003957;28;20277;-66
2024/02/19 10:07:59;;;;;;;17.67;10.77;;;4.90;99.90;;;;;;5007948;28;20286;-66
2024/02/19 10:10:27;;;;;;;26.17;11.70;;;4.90;99.90;;;;;;4988056;28;20203;-66
2024/02/19 10:12:57;;;;;;;16.53;10.53;;;4.90;99.90;;;;;;5009962;28;20215;-66
2024/02/19 10:15:24;;;;;;;18.73;10.37;;;4.90;99.90;;;;;;5001928;28;20532;-67
2024/02/19 10:17:51;;;;;;;18.23;9.90;;;4.90;99.90;;;;;;5009819;28;20584;-68
2024/02/19 10:20:20;;;;;;;18.07;10.60;;;4.90;99.90;;;;;;5009177;28;20725;-68
2024/02/19 10:22:47;;;;;;;15.53;9.40;;;4.90;99.90;;;;;;5009913;28;20265;-67
2024/02/19 10:25:16;;;;;;;18.63;9.50;;;4.90;99.90;;;;;;5008433;28;20219;-68
2024/02/19 10:27:44;;;;;;;21.27;10.13;;;4.80;99.90;;;;;;5009588;28;20311;-68
2024/02/19 10:30:14;;;;;;;17.53;10.50;;;4.80;99.90;;;;;;4993087;28;20305;-67
2024/02/19 10:32:42;;;;;;;17.07;9.67;;;4.90;99.90;;;;;;4991484;28;20274;-67
2024/02/19 10:35:09;;;;;;;16.37;10.13;;;4.90;99.90;;;;;;4991031;28;20571;-68
2024/02/19 10:37:36;;;;;;;16.57;10.27;;;4.90;99.90;;;;;;5008505;28;20204;-67
2024/02/19 10:40:09;;;;;;;20.73;10.40;;;4.90;99.90;;;;;;5009775;28;20505;-67
2024/02/19 10:42:37;;;;;;;18.80;10.43;;;4.90;99.90;;;;;;4992018;28;20534;-66
2024/02/19 10:45:06;;;;;;;18.20;10.20;;;4.90;99.90;;;;;;5008471;28;20303;-67
2024/02/19 10:47:34;;;;;;;18.40;10.03;;;4.90;99.90;;;;;;5004259;28;20208;-66
2024/02/19 10:50:05;;;;;;;23.13;11.50;;;4.90;99.90;;;;;;5012833;28;20823;-67
2024/02/19 10:52:33;;;;;;;18.97;11.37;;;4.90;99.90;;;;;;5008829;28;20268;-67
2024/02/19 10:55:01;;;;;;;15.17;9.70;;;4.90;99.90;;;;;;5000185;28;20248;-67
2024/02/19 10:57:31;;;;;;;19.93;10.23;;;4.90;99.90;;;;;;5005871;28;20200;-67
2024/02/19 11:00:10;;;;;;;16.03;10.23;;;4.90;99.90;;;;;;5007646;28;20634;-67
2024/02/19 11:02:39;;;;;;;17.23;9.40;;;4.90;99.90;;;;;;5011315;28;20331;-67
2024/02/19 11:05:09;;;;;;;15.33;9.67;;;4.90;99.90;;;;;;5020830;28;20678;-67
2024/02/19 11:07:36;;;;;;;23.13;11.67;;;4.90;99.90;;;;;;5007030;28;20205;-67
2024/02/19 11:10:05;;;;;;;19.77;10.90;;;4.90;99.90;;;;;;4990845;28;20299;-66
2024/02/19 11:12:32;;;;;;;21.03;11.33;;;4.90;99.90;;;;;;5008830;28;20261;-67
2024/02/19 11:15:00;;;;;;;22.23;10.83;;;4.90;99.90;;;;;;5001144;28;20222;-67
2024/02/19 11:17:28;;;;;;;18.27;10.63;;;5.00;99.90;;;;;;5007791;28;20239;-67
2024/02/19 11:19:56;;;;;;;18.20;11.17;;;5.00;99.90;;;;;;5018358;28;20233;-67
2024/02/19 11:22:30;;;;;;;19.03;10.70;;;4.90;99.90;;;;;;5008300;28;20289;-67
2024/02/19 11:24:58;;;;;;;16.30;10.77;;;4.90;99.90;;;;;;4999174;28;20274;-67
2024/02/19 11:27:25;;;;;;;19.90;10.77;;;4.90;99.90;;;;;;4990154;28;20188;-67
2024/02/19 11:29:57;;;;;;;15.90;10.37;;;4.90;99.90;;;;;;5007975;28;20249;-67
2024/02/19 11:32:26;;;;;;;19.03;10.73;;;4.90;99.90;;;;;;5008243;28;20192;-67
2024/02/19 11:34:53;;;;;;;18.23;10.50;;;4.90;99.90;;;;;;5014378;28;20218;-67
2024/02/19 11:37:22;;;;;;;16.83;10.20;;;5.00;99.90;;;;;;5007911;28;20270;-65
2024/02/19 11:39:49;;;;;;;18.00;11.60;;;5.00;99.90;;;;;;5014155;28;20650;-67
2024/02/19 11:42:16;;;;;;;18.03;11.00;;;5.10;99.90;;;;;;5011137;28;20196;-67
2024/02/19 11:44:45;;;;;;;20.87;12.70;;;5.00;99.90;;;;;;4994339;28;20203;-67
2024/02/19 11:47:13;;;;;;;19.63;11.77;;;5.10;99.90;;;;;;5007043;28;20322;-67
2024/02/19 11:49:41;;;;;;;19.13;11.47;;;5.10;99.90;;;;;;5009118;28;20863;-67
2024/02/19 11:52:10;;;;;;;20.40;11.50;;;5.10;99.90;;;;;;5008540;28;20217;-67
2024/02/19 11:54:40;;;;;;;19.50;12.13;;;5.20;99.90;;;;;;5011654;28;20206;-67
2024/02/19 11:57:10;;;;;;;14.60;10.33;;;5.20;99.90;;;;;;5010408;28;20200;-67
2024/02/19 11:59:37;;;;;;;16.03;10.30;;;5.10;99.90;;;;;;5018290;28;20258;-66
2024/02/19 12:02:05;;;;;;;17.77;10.73;;;5.20;99.90;;;;;;5009574;28;20203;-67
2024/02/19 12:04:35;;;;;;;17.90;10.97;;;5.20;99.90;;;;;;4997173;28;20355;-67
2024/02/19 12:07:03;;;;;;;17.27;10.97;;;5.20;99.90;;;;;;5000057;28;20196;-67
2024/02/19 12:09:30;;;;;;;16.30;9.90;;;5.30;99.90;;;;;;5009445;28;20196;-68
2024/02/19 12:12:00;;;;;;;15.57;10.60;;;5.30;99.90;;;;;;5008520;28;20900;-68
2024/02/19 12:14:28;;;;;;;18.03;11.27;;;5.30;99.90;;;;;;5011632;28;20302;-67
2024/02/19 12:16:55;;;;;;;17.40;10.20;;;5.40;99.90;;;;;;5007757;28;20212;-68
2024/02/19 12:19:22;;;;;;;15.37;9.57;;;5.40;99.90;;;;;;5007938;28;20565;-68
2024/02/19 12:21:49;;;;;;;14.70;9.03;;;5.40;99.90;;;;;;5006103;28;20640;-67
2024/02/19 12:24:17;;;;;;;17.07;10.03;;;5.40;99.90;;;;;;5008352;28;20215;-68
2024/02/19 12:26:44;;;;;;;19.87;10.30;;;5.40;99.90;;;;;;5009739;28;20223;-68
2024/02/19 12:29:13;;;;;;;18.80;11.67;;;5.50;99.90;;;;;;5009223;28;20708;-67
2024/02/19 12:31:40;;;;;;;18.60;11.47;;;5.50;99.90;;;;;;5010683;28;20728;-68
2024/02/19 12:34:08;;;;;;;16.40;10.43;;;5.50;99.90;;;;;;5016442;28;20676;-66
2024/02/19 12:36:36;;;;;;;19.37;10.83;;;5.50;99.90;;;;;;5007032;28;20274;-67
2024/02/19 12:39:09;;;;;;;21.13;12.60;;;5.50;99.90;;;;;;5008153;28;20287;-67
2024/02/19 12:41:36;;;;;;;17.77;11.07;;;5.60;99.90;;;;;;4989440;28;20207;-66
2024/02/19 12:44:03;;;;;;;22.97;11.30;;;5.50;99.90;;;;;;4986154;28;20200;-67
2024/02/19 12:46:32;;;;;;;17.70;10.20;;;5.50;99.90;;;;;;5012786;28;20283;-67
2024/02/19 12:49:00;;;;;;;19.33;11.37;;;5.50;99.90;;;;;;5006618;28;20196;-66